Mako, Hungary
Current Conditions -  °F | °C
As of 3:45 PM on Monday 22 Dec 2014 (Local Time) from LHUD Reporting Station
Light Rain Light Rain  
Wind Chill: 35°   Ceiling: 4000
Heat Index: 41°   Visibility: 6mi
Dew Point: 36°   Wind: 9mph
Humidity: 81%   Direction: 200°SSW
Pressure: 30.15"   Gusts: NA
Location:  46.22°N, 20.47°E
Report Text: LHUD 221345Z 20008KT 9999 -RA BKN040 05/02 Q1021
Loading
Personal Weather Stations






























Interactive Weather Map New forecast layout! Learn more

10-Day Weather Forecast

Advertisements
Track Severe Weather on mobile